createdAt,value
2024-05-09T00:02:46.785Z,6.60
2024-05-09T00:07:52.811Z,8.70
2024-05-09T00:12:58.834Z,9.10
2024-05-09T00:18:06.635Z,11.20
2024-05-09T00:23:14.068Z,9.60
2024-05-09T00:28:20.230Z,9.70
2024-05-09T00:33:26.594Z,6.50
2024-05-09T00:38:33.283Z,10.90
2024-05-09T00:43:39.515Z,19.30
2024-05-09T00:48:45.666Z,16.70
2024-05-09T00:53:51.660Z,10.70
2024-05-09T00:58:57.557Z,8.30
2024-05-09T01:04:03.750Z,7.50
2024-05-09T01:09:09.979Z,9.00
2024-05-09T01:14:16.122Z,7.20
2024-05-09T01:19:25.800Z,9.40
2024-05-09T01:24:32.216Z,8.20
2024-05-09T01:29:38.137Z,12.80
2024-05-09T01:34:44.332Z,9.60
2024-05-09T01:39:50.614Z,9.40
2024-05-09T01:44:56.860Z,11.10
2024-05-09T01:50:03.538Z,9.30
2024-05-09T01:55:09.710Z,9.20
2024-05-09T02:00:22.255Z,10.10
2024-05-09T02:05:35.975Z,11.20
2024-05-09T02:10:42.698Z,6.80
2024-05-09T02:15:52.114Z,7.80
2024-05-09T02:20:58.157Z,8.90
2024-05-09T02:26:04.545Z,10.40
2024-05-09T02:31:13.635Z,14.10
2024-05-09T02:36:19.879Z,14.50
2024-05-09T02:41:26.836Z,13.10
2024-05-09T02:46:35.137Z,12.50
2024-05-09T02:51:41.053Z,24.10
2024-05-09T02:56:47.881Z,22.30
2024-05-09T03:01:53.954Z,20.40
2024-05-09T03:07:00.075Z,16.60
2024-05-09T03:12:08.217Z,14.10
2024-05-09T03:17:14.573Z,22.80
2024-05-09T03:22:20.999Z,9.30
2024-05-09T03:27:27.802Z,10.70
2024-05-09T03:32:34.352Z,12.80
2024-05-09T03:37:40.557Z,10.70
2024-05-09T03:42:46.581Z,10.80
2024-05-09T03:47:52.920Z,8.30
2024-05-09T03:52:59.086Z,9.80
2024-05-09T03:58:07.608Z,12.80
2024-05-09T04:03:13.859Z,8.30
2024-05-09T04:08:20.584Z,11.60
2024-05-09T04:13:26.969Z,10.90
2024-05-09T04:18:33.864Z,14.20
2024-05-09T04:23:40.160Z,15.60
2024-05-09T04:28:46.665Z,10.20
2024-05-09T04:33:53.224Z,15.70
2024-05-09T04:39:00.061Z,14.50
2024-05-09T04:44:07.482Z,16.20
2024-05-09T04:49:13.902Z,9.80
2024-05-09T04:59:29.734Z,8.00
2024-05-09T05:04:36.095Z,9.60
2024-05-09T05:09:42.216Z,8.90
2024-05-09T05:14:48.047Z,5.40
2024-05-09T05:19:54.209Z,9.60
2024-05-09T05:25:00.648Z,11.20
2024-05-09T05:30:14.658Z,11.20
2024-05-09T05:35:24.084Z,11.80
2024-05-09T05:40:36.281Z,10.10
2024-05-09T05:45:44.725Z,4.40
2024-05-09T05:50:50.686Z,6.30
2024-05-09T05:55:56.944Z,9.80
2024-05-09T06:01:03.044Z,8.70
2024-05-09T06:06:09.119Z,5.00
2024-05-09T06:11:15.503Z,7.20
2024-05-09T06:16:21.768Z,9.60
2024-05-09T06:21:27.786Z,6.80
2024-05-09T06:26:34.298Z,2.80
2024-05-09T06:31:42.014Z,13.90
2024-05-09T06:36:48.095Z,9.90
2024-05-09T06:41:54.189Z,5.10
2024-05-09T06:47:00.666Z,10.40
2024-05-09T06:57:12.575Z,13.00
2024-05-09T07:02:18.722Z,5.70
2024-05-09T07:07:25.264Z,13.80
2024-05-09T07:17:39.219Z,6.60
2024-05-09T07:22:45.681Z,3.90
2024-05-09T07:27:52.001Z,5.80
2024-05-09T07:32:58.913Z,6.30
2024-05-09T07:38:06.251Z,2.70
2024-05-09T07:43:12.856Z,9.90
2024-05-09T07:53:40.558Z,15.50
2024-05-09T07:58:51.775Z,3.20
2024-05-09T08:03:58.569Z,4.40
2024-05-09T08:09:08.250Z,3.30
2024-05-09T08:14:19.952Z,4.20
2024-05-09T08:19:26.374Z,7.20
2024-05-09T08:24:32.653Z,5.30
2024-05-09T08:29:38.999Z,3.30
2024-05-09T08:35:24.356Z,3.70
2024-05-09T08:45:44.033Z,3.60
2024-05-09T08:50:53.108Z,5.20
2024-05-09T08:56:04.064Z,5.30
2024-05-09T09:01:11.099Z,4.00
2024-05-09T09:06:18.063Z,4.50
2024-05-09T09:11:24.261Z,15.70
2024-05-09T09:16:36.776Z,2.40
2024-05-09T09:21:42.972Z,4.40
2024-05-09T09:26:49.061Z,2.00
2024-05-09T09:32:01.562Z,3.40
2024-05-09T09:37:11.663Z,3.50
2024-05-09T09:42:18.204Z,5.30
2024-05-09T09:47:26.266Z,28.30
2024-05-09T09:52:32.656Z,6.80
2024-05-09T09:57:40.078Z,7.60
2024-05-09T10:02:49.410Z,4.80
2024-05-09T10:07:56.909Z,7.10
2024-05-09T10:13:06.816Z,4.80
2024-05-09T10:18:13.456Z,3.50
2024-05-09T10:23:27.321Z,2.40
2024-05-09T10:28:34.920Z,6.90
2024-05-09T10:33:46.121Z,3.50
2024-05-09T10:38:53.639Z,7.90
2024-05-09T10:43:59.720Z,3.60
2024-05-09T10:49:07.999Z,4.40
2024-05-09T10:54:14.579Z,4.20
2024-05-09T10:59:20.756Z,5.50
2024-05-09T11:04:27.499Z,3.70
2024-05-09T11:09:34.059Z,3.80
2024-05-09T11:14:40.183Z,4.30
2024-05-09T11:19:46.450Z,3.40
2024-05-09T11:24:54.671Z,4.10
2024-05-09T11:30:01.548Z,3.10
2024-05-09T11:35:08.143Z,2.60
2024-05-09T11:40:21.350Z,3.50
2024-05-09T11:45:32.451Z,1.50
2024-05-09T11:50:38.663Z,4.00
2024-05-09T11:55:44.616Z,10.80
2024-05-09T12:00:50.991Z,3.90
2024-05-09T12:05:58.814Z,9.10
2024-05-09T12:11:05.650Z,2.80
2024-05-09T12:16:12.338Z,4.80
2024-05-09T12:21:18.872Z,5.50
2024-05-09T12:26:25.387Z,2.50
2024-05-09T12:31:32.317Z,6.70
2024-05-09T12:36:38.454Z,3.70
2024-05-09T12:41:44.946Z,4.00
2024-05-09T12:46:50.845Z,2.80
2024-05-09T12:51:57.076Z,3.70
2024-05-09T12:57:03.313Z,4.80
2024-05-09T13:02:09.754Z,4.90
2024-05-09T13:07:16.574Z,2.80
2024-05-09T13:12:24.331Z,6.00
2024-05-09T13:17:31.302Z,2.40
2024-05-09T13:22:38.159Z,14.80
2024-05-09T13:27:44.258Z,4.70
2024-05-09T13:32:50.236Z,8.90
2024-05-09T13:37:56.307Z,3.60
2024-05-09T13:43:02.748Z,4.80
2024-05-09T13:48:11.019Z,5.70
2024-05-09T13:53:18.910Z,2.90
2024-05-09T13:58:25.584Z,6.90
2024-05-09T14:03:32.502Z,4.50
2024-05-09T14:08:46.555Z,5.00
2024-05-09T14:13:59.868Z,4.30
2024-05-09T14:19:06.203Z,4.30
2024-05-09T14:24:12.222Z,2.70
2024-05-09T14:29:18.143Z,4.10
2024-05-09T14:34:24.327Z,6.80
2024-05-09T14:39:30.675Z,5.50
2024-05-09T14:44:36.833Z,5.40
2024-05-09T14:49:43.870Z,8.20
2024-05-09T14:54:59.915Z,4.60
2024-05-09T15:00:17.433Z,8.40
2024-05-09T15:05:31.723Z,3.50
2024-05-09T15:10:38.596Z,10.60
2024-05-09T15:15:44.959Z,8.00
2024-05-09T15:20:51.217Z,4.60
2024-05-09T15:25:57.820Z,4.40
2024-05-09T15:31:04.091Z,4.90
2024-05-09T15:36:10.283Z,6.70
2024-05-09T15:41:16.580Z,5.80
2024-05-09T15:46:22.747Z,13.00
2024-05-09T15:51:29.466Z,7.30
2024-05-09T15:56:36.332Z,4.00
2024-05-09T16:01:42.603Z,5.80
2024-05-09T16:06:49.489Z,5.30
2024-05-09T16:11:55.489Z,3.80
2024-05-09T16:17:02.161Z,6.30
2024-05-09T16:22:08.440Z,4.20
2024-05-09T16:27:15.098Z,6.70
2024-05-09T16:32:21.391Z,5.20
2024-05-09T16:37:29.584Z,6.50
2024-05-09T16:42:36.466Z,5.30
2024-05-09T16:47:42.974Z,5.50
2024-05-09T16:52:49.157Z,3.00
2024-05-09T16:57:55.730Z,6.90
2024-05-09T17:03:02.285Z,6.40
2024-05-09T17:08:09.311Z,4.90
2024-05-09T17:13:15.740Z,4.00
2024-05-09T17:18:23.062Z,4.30
2024-05-09T17:23:34.322Z,7.10
2024-05-09T17:28:44.213Z,7.70
2024-05-09T17:33:50.682Z,10.10
2024-05-09T17:38:57.055Z,6.10
2024-05-09T17:44:03.785Z,6.10
2024-05-09T17:49:10.046Z,8.90
2024-05-09T17:54:16.396Z,5.90
2024-05-09T17:59:22.578Z,7.00
2024-05-09T18:04:30.968Z,12.20
2024-05-09T18:09:39.002Z,6.80
2024-05-09T18:14:45.001Z,7.00
2024-05-09T18:19:51.550Z,9.70
2024-05-09T18:24:57.980Z,8.40
2024-05-09T18:30:09.390Z,7.20
2024-05-09T18:35:16.084Z,9.00
2024-05-09T18:40:31.215Z,13.30
2024-05-09T18:45:41.629Z,8.30
2024-05-09T18:50:47.923Z,10.10
2024-05-09T18:55:54.158Z,22.80
2024-05-09T19:01:01.791Z,20.70
2024-05-09T19:06:08.206Z,14.20
2024-05-09T19:11:14.911Z,21.80
2024-05-09T19:16:21.280Z,14.40
2024-05-09T19:21:27.743Z,13.60
2024-05-09T19:26:34.142Z,15.90
2024-05-09T19:31:40.198Z,21.00
2024-05-09T19:36:46.478Z,20.20
2024-05-09T19:41:52.621Z,25.10
2024-05-09T19:46:58.906Z,22.60
2024-05-09T19:52:05.793Z,26.90
2024-05-09T19:57:13.630Z,23.40
2024-05-09T20:02:19.935Z,20.10
2024-05-09T20:07:25.995Z,13.90
2024-05-09T20:12:32.609Z,17.20
2024-05-09T20:17:39.445Z,23.70
2024-05-09T20:22:45.888Z,24.60
2024-05-09T20:27:52.539Z,28.10
2024-05-09T20:32:58.731Z,28.50
2024-05-09T20:38:05.238Z,33.50
2024-05-09T20:43:12.056Z,38.80
2024-05-09T20:48:18.245Z,48.20
2024-05-09T20:53:24.510Z,44.40
2024-05-09T20:58:31.248Z,48.10
2024-05-09T21:03:37.813Z,88.60
2024-05-09T21:08:44.797Z,117.70
2024-05-09T21:13:51.833Z,117.90
2024-05-09T21:18:58.136Z,116.40
2024-05-09T21:24:04.357Z,105.40
2024-05-09T21:29:11.539Z,85.80
2024-05-09T21:34:17.558Z,91.40
2024-05-09T21:39:24.709Z,77.10
2024-05-09T21:44:31.423Z,74.00
2024-05-09T21:49:37.360Z,60.10
2024-05-09T21:54:43.756Z,50.10
2024-05-09T21:59:49.855Z,57.00
2024-05-09T22:04:56.234Z,47.00
2024-05-09T22:10:02.604Z,52.20
2024-05-09T22:15:09.257Z,38.70
2024-05-09T22:20:22.205Z,42.00
2024-05-09T22:25:35.243Z,53.20
2024-05-09T22:30:43.913Z,39.80
2024-05-09T22:35:51.270Z,36.70
2024-05-09T22:40:57.370Z,37.20
2024-05-09T22:46:03.643Z,36.50
2024-05-09T22:51:09.627Z,37.00
2024-05-09T22:56:25.476Z,34.30
2024-05-09T23:01:32.130Z,35.90
2024-05-09T23:06:41.348Z,39.20
2024-05-09T23:11:47.399Z,39.30
2024-05-09T23:16:53.444Z,44.90
2024-05-09T23:21:59.701Z,38.20
2024-05-09T23:27:06.341Z,38.40
2024-05-09T23:32:12.487Z,36.10
2024-05-09T23:37:18.846Z,43.40
2024-05-09T23:42:25.248Z,32.70
2024-05-09T23:47:31.406Z,35.40
2024-05-09T23:52:38.001Z,35.90
2024-05-09T23:57:44.416Z,33.40
